Chepachet, Rhode Island
Current Conditions -  °F | °C
As of 9:15 AM on Sunday 25 Jan 2015 (Local Time) from KSFZ Reporting Station
Scattered Clouds Scattered Clouds  
Wind Chill: 27°   Ceiling: Unl
Heat Index: 34°   Visibility: 10mi
Dew Point: 25°   Wind: 8mph
Humidity: 70%   Direction: 250°WSW
Pressure: 29.57"   Gusts: NA
Location:  41.91°N, 71.67°W
Report Text: KSFZ 251415Z 25007KT 210V290 10SM SCT050 01/M04 A2957 RMK AO1
Loading
Personal Weather Stations






























Interactive Weather Map New forecast layout! Learn more

10-Day Weather Forecast

Advertisements
Track Severe Weather on mobile